X  Close Metar Aviation Weather Data     EGNS Isle of Man Airport
Temperature
10°C Temperature
9°C Dewpoint
94% Humidity



Wind
24 KM/H
15 MPH
7 M/S
13 KTS



210°
SSW
Current Conditions

Partly Cloudy Partly Cloudy
Pressure 1006.77 (hPa) - 29.73 (inHg)
Visibility 6 (mile) - 9.7 (km)
Airport
Airport-code EGNS

Location: Isle of Man Airport
Distance: 18 (km)

Metar:
EGNS 281420Z 21013KT 9999 FEW005 BKN013 BKN018 10/09 Q1007 TEMPO 3000 RADZ BKN004

Time: 28-02-2024 14:20 GMT